Time;durP1;ratioP1;P1;durP2;ratioP2;P2;SDS_P1;SDS_P2;PMS_P1;PMS_P2;Temp;Humidity;BMP_temperature;BMP_pressure;BME280_temperature;BME280_humidity;BME280_pressure;Samples;Min_cycle;Max_cycle;Signal;HPM_P1;HPM_P2
2023/03/06 00:00:28;;;;;;;7.15;3.33;;;;;;;-144.47;85.58;53050.75;5027983;28;20113;-68
2023/03/06 00:02:54;;;;;;;9.10;4.00;;;;;;;-144.47;85.30;53015.00;5028787;28;20029;-69
2023/03/06 00:05:19;;;;;;;8.50;3.88;;;;;;;-144.47;85.50;53020.94;5023154;28;20108;-66
2023/03/06 00:07:45;;;;;;;10.18;4.18;;;;;;;-144.47;85.35;53044.78;5029954;28;20136;-68
2023/03/06 00:10:17;;;;;;;8.25;3.97;;;;;;;-144.47;85.33;53026.91;5030672;28;20111;-70
2023/03/06 00:12:42;;;;;;;10.35;4.38;;;;;;;-144.47;85.25;53036.84;5036300;28;20382;-69
2023/03/06 00:15:09;;;;;;;8.30;3.70;;;;;;;-144.47;84.91;53038.81;5028088;28;20021;-68
2023/03/06 00:17:35;;;;;;;9.73;4.43;;;;;;;-144.47;85.32;53020.94;5027863;28;20021;-67
2023/03/06 00:20:00;;;;;;;10.85;4.45;;;;;;;-144.47;85.40;53046.75;5027721;28;20037;-69
2023/03/06 00:22:26;;;;;;;8.23;4.00;;;;;;;-144.47;85.35;53018.97;5028197;28;20026;-68
2023/03/06 00:24:52;;;;;;;9.23;4.03;;;;;;;-144.47;85.38;53030.88;5027625;28;20083;-67
2023/03/06 00:27:18;;;;;;;7.88;4.00;;;;;;;-144.47;85.25;53036.84;5027676;28;20029;-68
2023/03/06 00:29:44;;;;;;;8.90;3.97;;;;;;;-144.47;85.33;53011.00;5009890;28;20051;-69
2023/03/06 00:32:09;;;;;;;11.52;4.10;;;;;;;-144.47;85.53;53028.88;5029692;28;20109;-66
2023/03/06 00:34:34;;;;;;;10.65;4.32;;;;;;;-144.47;85.67;53038.81;5031465;28;20021;-69
2023/03/06 00:37:00;;;;;;;12.10;4.78;;;;;;;-144.47;85.71;53018.97;5031544;28;20053;-66
2023/03/06 00:39:25;;;;;;;10.52;4.47;;;;;;;-144.47;85.75;53022.94;5030614;28;20378;-69
2023/03/06 00:41:50;;;;;;;8.60;4.43;;;;;;;-144.47;86.10;53030.88;5031458;28;20048;-67
2023/03/06 00:44:16;;;;;;;8.40;3.78;;;;;;;-144.47;85.68;53026.91;5031227;28;20044;-68
2023/03/06 00:46:41;;;;;;;13.38;4.85;;;;;;;-144.47;85.90;53018.97;5030423;28;20048;-69
2023/03/06 00:49:06;;;;;;;10.10;4.38;;;;;;;-144.47;85.97;53018.97;5031227;28;20061;-70
2023/03/06 00:51:32;;;;;;;9.10;4.32;;;;;;;-144.47;86.04;53040.81;5031087;28;20113;-68
2023/03/06 00:53:57;;;;;;;8.55;3.80;;;;;;;-144.47;85.93;53015.00;5035648;28;20033;-69
2023/03/06 00:56:23;;;;;;;9.48;4.22;;;;;;;-144.47;86.19;53015.00;5036055;28;20071;-67
2023/03/06 00:58:49;;;;;;;10.05;4.72;;;;;;;-144.47;86.05;53032.88;5030876;28;20029;-68
2023/03/06 01:01:14;;;;;;;11.45;4.80;;;;;;;-144.47;86.19;53036.84;5030497;28;20105;-68
2023/03/06 01:03:39;;;;;;;10.70;5.18;;;;;;;-144.47;86.40;53026.91;5030684;28;20026;-68
2023/03/06 01:06:05;;;;;;;12.40;5.03;;;;;;;-144.47;86.55;53040.81;5030603;28;20505;-67
2023/03/06 01:08:30;;;;;;;10.02;4.72;;;;;;;-144.47;86.39;53024.91;5029970;28;20036;-67
2023/03/06 01:10:56;;;;;;;11.63;4.82;;;;;;;-144.47;86.32;53028.88;5017690;28;20117;-68
2023/03/06 01:13:21;;;;;;;14.25;4.30;;;;;;;-144.47;86.74;53042.78;5035877;28;20021;-66
2023/03/06 01:15:47;;;;;;;10.40;4.55;;;;;;;-144.47;86.62;53036.84;5030629;28;20392;-71
2023/03/06 01:18:12;;;;;;;12.23;5.10;;;;;;;-144.47;86.69;53052.72;5030627;28;20021;-68
2023/03/06 01:20:38;;;;;;;10.38;4.72;;;;;;;-144.47;86.77;53038.81;5030289;28;20024;-66
2023/03/06 01:23:03;;;;;;;10.23;5.13;;;;;;;-144.47;86.67;53030.88;5029699;28;20039;-69
2023/03/06 01:25:28;;;;;;;12.10;4.68;;;;;;;-144.47;86.96;53018.97;5030284;28;20013;-66
2023/03/06 01:27:54;;;;;;;14.48;5.35;;;;;;;-144.47;87.34;53024.91;5029416;28;20094;-69
2023/03/06 01:30:19;;;;;;;10.02;4.03;;;;;;;-144.47;87.01;53026.91;5030047;28;20051;-67
2023/03/06 01:32:45;;;;;;;16.45;4.93;;;;;;;-144.47;86.89;53018.97;5029948;28;20025;-68
2023/03/06 01:35:11;;;;;;;10.93;5.35;;;;;;;-144.47;86.72;53074.56;5030365;28;20044;-67
2023/03/06 01:37:38;;;;;;;12.00;4.95;;;;;;;-144.47;86.53;53048.75;5030538;28;20009;-66
2023/03/06 01:40:05;;;;;;;9.65;4.40;;;;;;;-144.47;86.64;53044.78;5030311;28;20093;-68
2023/03/06 01:42:31;;;;;;;13.18;5.85;;;;;;;-144.47;86.92;53028.88;5011501;28;20387;-69
2023/03/06 01:45:10;;;;;;;12.75;4.45;;;;;;;-144.47;86.70;53034.84;5029908;28;20024;-67
2023/03/06 01:47:35;;;;;;;12.38;4.85;;;;;;;-144.47;86.55;53028.88;5029278;28;20020;-68
2023/03/06 01:50:02;;;;;;;16.20;4.82;;;;;;;-144.47;86.58;53054.72;5030307;28;20029;-67
2023/03/06 01:52:32;;;;;;;15.80;5.10;;;;;;;-144.47;86.62;53052.72;5025475;28;20053;-68
2023/03/06 01:55:06;;;;;;;10.10;4.43;;;;;;;-144.47;85.78;53034.84;5032607;28;20022;-68
2023/03/06 01:57:35;;;;;;;9.95;4.45;;;;;;;-144.47;85.78;53066.63;5032082;28;20025;-66
2023/03/06 02:00:07;;;;;;;9.23;4.50;;;;;;;-144.47;85.89;53046.75;5029519;28;20422;-66
2023/03/06 02:02:33;;;;;;;8.05;4.00;;;;;;;-144.47;85.72;53038.81;5020092;28;20028;-67
2023/03/06 02:05:00;;;;;;;12.32;4.95;;;;;;;-144.47;85.65;53042.78;5029334;28;20021;-68
2023/03/06 02:07:27;;;;;;;9.50;4.70;;;;;;;-144.47;86.21;53070.59;5028579;28;20324;-69
2023/03/06 02:09:52;;;;;;;9.77;4.43;;;;;;;-144.47;86.45;53044.78;5034818;28;20040;-66
2023/03/06 02:12:19;;;;;;;11.73;4.57;;;;;;;-144.47;86.45;53024.91;5032426;28;20024;-68
2023/03/06 02:14:45;;;;;;;8.65;4.00;;;;;;;-144.47;86.53;53038.81;5033249;28;20029;-65
2023/03/06 02:17:14;;;;;;;9.68;4.43;;;;;;;-144.47;86.26;53020.94;5028958;28;20017;-68
2023/03/06 02:19:42;;;;;;;8.70;4.30;;;;;;;-144.47;85.94;53036.84;5029267;28;20025;-68
2023/03/06 02:22:08;;;;;;;11.20;3.55;;;;;;;-144.47;86.05;53064.66;5029408;28;20026;-67
2023/03/06 02:24:44;;;;;;;9.50;4.72;;;;;;;-144.47;85.92;53030.88;5030611;28;20474;-67
2023/03/06 02:27:11;;;;;;;14.25;4.88;;;;;;;-144.47;86.23;53042.78;5029158;28;20025;-68
2023/03/06 02:29:37;;;;;;;9.30;4.70;;;;;;;-144.47;86.35;53040.81;5030089;28;20034;-67
2023/03/06 02:32:03;;;;;;;10.15;4.53;;;;;;;-144.47;86.80;53032.88;5030435;28;20108;-68
2023/03/06 02:34:28;;;;;;;8.60;3.50;;;;;;;-144.47;87.40;53040.81;5030180;28;20072;-68
2023/03/06 02:37:00;;;;;;;9.02;4.38;;;;;;;-144.47;87.94;53050.75;5029360;28;20026;-67
2023/03/06 02:39:31;;;;;;;12.50;4.40;;;;;;;-144.47;88.21;53038.81;5034001;28;20017;-67
2023/03/06 02:41:56;;;;;;;13.75;4.95;;;;;;;-144.47;88.51;53054.72;5033916;28;20048;-67
2023/03/06 02:44:23;;;;;;;8.80;4.35;;;;;;;-144.47;88.29;53030.88;5029097;28;20479;-68
2023/03/06 02:46:48;;;;;;;10.80;5.10;;;;;;;-144.47;88.49;53058.69;5028177;28;20025;-68
2023/03/06 02:49:13;;;;;;;14.32;5.88;;;;;;;-144.47;87.95;53064.66;5029193;28;20102;-68
2023/03/06 02:51:39;;;;;;;11.77;4.20;;;;;;;-144.47;88.25;53022.94;5028623;28;20136;-66
2023/03/06 02:54:04;;;;;;;11.68;4.68;;;;;;;-144.47;88.39;53054.72;5013912;28;20021;-66
2023/03/06 02:56:29;;;;;;;12.27;4.45;;;;;;;-144.47;88.38;53040.81;5034024;28;20530;-68
2023/03/06 02:58:55;;;;;;;11.63;4.88;;;;;;;-144.47;88.70;53050.75;5028283;28;20014;-65
2023/03/06 03:01:20;;;;;;;14.85;5.45;;;;;;;-144.47;88.57;53046.75;5027974;28;20462;-67
2023/03/06 03:03:46;;;;;;;8.85;4.63;;;;;;;-144.47;88.76;53074.56;5028188;28;20420;-67
2023/03/06 03:06:11;;;;;;;10.38;4.80;;;;;;;-144.47;88.81;53048.75;5028158;28;20530;-67
2023/03/06 03:08:37;;;;;;;18.25;5.18;;;;;;;-144.47;88.99;53088.47;5034116;28;20105;-66
2023/03/06 03:11:03;;;;;;;12.55;5.22;;;;;;;-144.47;88.65;53058.69;5027655;28;20037;-68
2023/03/06 03:13:28;;;;;;;13.73;6.53;;;;;;;-144.47;88.98;53046.75;5018131;28;20017;-68
2023/03/06 03:16:03;;;;;;;16.42;5.55;;;;;;;-144.47;88.89;53070.59;5027961;28;20543;-65
2023/03/06 03:18:29;;;;;;;14.45;5.75;;;;;;;-144.47;88.68;53040.81;5027708;28;20025;-67
2023/03/06 03:20:54;;;;;;;12.55;5.78;;;;;;;-144.47;88.34;53050.75;5028062;28;20051;-65
2023/03/06 03:23:20;;;;;;;13.07;5.45;;;;;;;-144.47;88.63;53054.72;5009730;28;20021;-67
2023/03/06 03:25:46;;;;;;;12.48;6.20;;;;;;;-144.47;88.40;53052.72;5027508;28;20032;-67
2023/03/06 03:28:11;;;;;;;14.00;5.47;;;;;;;-144.47;88.63;53032.88;5027367;28;20021;-68
2023/03/06 03:30:38;;;;;;;12.13;5.30;;;;;;;-144.47;88.28;53056.69;5010545;28;20454;-67
2023/03/06 03:33:04;;;;;;;12.02;6.30;;;;;;;-144.47;88.34;53038.81;5028247;28;20331;-68
2023/03/06 03:35:29;;;;;;;11.95;5.32;;;;;;;-144.47;88.33;53056.69;5027125;28;20055;-68
2023/03/06 03:37:55;;;;;;;18.33;6.47;;;;;;;-144.47;88.40;53040.81;5027794;28;20091;-66
2023/03/06 03:40:21;;;;;;;13.88;6.00;;;;;;;-144.47;88.44;53048.75;5027615;28;20037;-66
2023/03/06 03:42:46;;;;;;;13.52;6.55;;;;;;;-144.47;88.51;53036.84;5027620;28;20479;-66
2023/03/06 03:45:11;;;;;;;17.45;7.30;;;;;;;-144.47;88.66;53064.66;5027844;28;20060;-66
2023/03/06 03:47:37;;;;;;;13.20;5.65;;;;;;;-144.47;88.54;53036.84;5026943;28;20083;-65
2023/03/06 03:50:03;;;;;;;12.88;5.88;;;;;;;-144.47;88.22;53060.66;5027783;28;20025;-67
2023/03/06 03:52:28;;;;;;;12.52;6.07;;;;;;;-144.47;88.31;53032.88;5023251;28;20056;-67
2023/03/06 03:54:54;;;;;;;16.17;5.68;;;;;;;-144.47;88.13;53066.63;5033589;28;20108;-68
2023/03/06 03:57:19;;;;;;;13.90;6.22;;;;;;;-144.47;88.21;53054.72;5031233;28;20040;-66
2023/03/06 03:59:44;;;;;;;11.68;5.93;;;;;;;-144.47;88.36;53050.75;5027962;28;20036;-67
2023/03/06 04:02:10;;;;;;;13.05;5.88;;;;;;;-144.47;88.79;53058.69;5027335;28;20073;-68
2023/03/06 04:04:35;;;;;;;14.80;6.35;;;;;;;-144.47;89.08;53076.56;5027659;28;20025;-69
2023/03/06 04:07:04;;;;;;;15.68;6.63;;;;;;;-144.47;89.27;53056.69;5026900;28;20033;-69
2023/03/06 04:09:29;;;;;;;15.00;6.03;;;;;;;-144.47;89.17;53038.81;5015878;28;20021;-68
2023/03/06 04:11:54;;;;;;;17.15;6.15;;;;;;;-144.47;89.60;53076.56;5028279;28;20029;-65
2023/03/06 04:14:20;;;;;;;12.68;6.28;;;;;;;-144.47;89.63;53070.59;5034573;28;20037;-69
2023/03/06 04:16:45;;;;;;;14.00;6.10;;;;;;;-144.47;89.65;53084.50;5027270;28;20025;-68
2023/03/06 04:19:11;;;;;;;14.38;5.50;;;;;;;-144.47;89.65;53054.72;5027363;28;20479;-68
2023/03/06 04:21:36;;;;;;;11.75;5.53;;;;;;;-144.47;89.68;53040.81;5028685;28;20328;-66
2023/03/06 04:24:02;;;;;;;12.07;5.88;;;;;;;-144.47;89.41;53086.50;5027556;28;20036;-68
2023/03/06 04:26:27;;;;;;;14.77;5.90;;;;;;;-144.47;89.46;53072.59;5026658;28;20059;-70
2023/03/06 04:28:54;;;;;;;14.48;6.40;;;;;;;-144.47;89.82;53050.75;5026907;28;20037;-67
2023/03/06 04:31:19;;;;;;;21.80;7.10;;;;;;;-144.47;89.88;53074.56;5027429;28;20035;-69
2023/03/06 04:33:45;;;;;;;15.48;6.28;;;;;;;-144.47;89.95;53074.56;5009632;28;20109;-69
2023/03/06 04:36:24;;;;;;;12.55;5.35;;;;;;;-144.47;90.23;53046.75;5026804;28;20587;-70
2023/03/06 04:38:49;;;;;;;;;;;;;;;-144.47;90.36;53090.47;5023044;28;20029;-68
2023/03/06 04:41:14;;;;;;;18.83;6.15;;;;;;;-144.47;90.30;53056.69;5030567;28;19913;-68
2023/03/06 04:43:40;;;;;;;14.02;5.72;;;;;;;-144.47;90.50;53072.59;5031578;28;20117;-69
2023/03/06 04:46:05;;;;;;;14.70;5.53;;;;;;;-144.47;90.25;53026.91;5027180;28;20026;-66
2023/03/06 04:48:31;;;;;;;10.90;5.63;;;;;;;-144.47;90.04;53074.56;5026820;28;20120;-68
2023/03/06 04:50:56;;;;;;;14.32;6.95;;;;;;;-144.47;90.25;53054.72;5025877;28;20029;-68
2023/03/06 04:53:21;;;;;;;16.27;6.45;;;;;;;-144.47;90.80;53046.75;5023567;28;20116;-69
2023/03/06 04:55:47;;;;;;;12.90;6.00;;;;;;;-144.47;90.60;53078.53;5033446;28;20037;-66
2023/03/06 04:58:12;;;;;;;14.55;6.20;;;;;;;-144.47;90.60;53070.59;5030432;28;20021;-68
2023/03/06 05:00:38;;;;;;;14.75;6.35;;;;;;;-144.47;90.23;53072.59;5026820;28;20029;-68
2023/03/06 05:03:03;;;;;;;13.70;6.80;;;;;;;-144.47;90.04;53050.75;5028995;28;20034;-66
2023/03/06 05:05:29;;;;;;;16.67;6.30;;;;;;;-144.47;89.84;53066.63;5036117;28;20447;-68
2023/03/06 05:07:55;;;;;;;14.70;6.32;;;;;;;-144.47;90.00;53068.63;5029618;28;20360;-67
2023/03/06 05:10:21;;;;;;;13.35;6.57;;;;;;;-144.47;90.28;53058.69;5031646;28;20025;-68
2023/03/06 05:12:46;;;;;;;14.77;6.47;;;;;;;-144.47;90.17;53056.69;5027529;28;20045;-66
2023/03/06 05:15:12;;;;;;;15.27;6.35;;;;;;;-144.47;89.85;53066.63;5031906;28;20384;-67
2023/03/06 05:17:38;;;;;;;14.38;6.28;;;;;;;-144.47;90.21;53072.59;5026817;28;20044;-68
2023/03/06 05:20:05;;;;;;;18.98;6.20;;;;;;;-144.47;90.68;53050.75;5030275;28;20067;-66
2023/03/06 05:22:32;;;;;;;13.55;5.85;;;;;;;-144.47;90.76;53080.53;5011064;28;20555;-69
2023/03/06 05:24:59;;;;;;;13.77;6.30;;;;;;;-144.47;90.75;53074.56;5029342;28;20021;-67
2023/03/06 05:27:24;;;;;;;13.95;6.43;;;;;;;-144.47;91.52;53058.69;5029204;28;20112;-66
2023/03/06 05:29:50;;;;;;;13.85;5.60;;;;;;;-144.47;91.72;53056.69;5030164;28;20579;-67
2023/03/06 05:32:15;;;;;;;23.75;8.27;;;;;;;-144.47;91.16;53084.50;5030363;28;20435;-67
2023/03/06 05:34:41;;;;;;;17.23;6.43;;;;;;;-144.47;91.48;53070.59;5030209;28;20688;-69
2023/03/06 05:37:06;;;;;;;14.50;6.15;;;;;;;-144.47;91.00;53086.50;5029696;28;20049;-65
2023/03/06 05:39:32;;;;;;;13.75;6.03;;;;;;;-144.47;91.12;53080.53;5029369;28;20041;-67
2023/03/06 05:41:57;;;;;;;15.20;6.55;;;;;;;-144.47;91.42;53066.63;5029783;28;20033;-66
2023/03/06 05:44:22;;;;;;;15.10;6.32;;;;;;;-144.47;90.88;53078.53;5029646;28;20033;-64
2023/03/06 05:46:49;;;;;;;14.63;6.43;;;;;;;-144.47;90.61;53066.63;5029302;28;20029;-67
2023/03/06 05:49:14;;;;;;;12.55;6.18;;;;;;;-144.47;90.52;53046.75;5028850;28;20055;-65
2023/03/06 05:51:40;;;;;;;15.93;7.50;;;;;;;-144.47;90.27;53052.72;5029709;28;20052;-67
2023/03/06 05:54:05;;;;;;;22.13;6.70;;;;;;;-144.47;89.91;53074.56;5037241;28;20021;-64
2023/03/06 05:56:30;;;;;;;15.63;5.97;;;;;;;-144.47;89.98;53080.53;5039083;28;20040;-68
2023/03/06 05:58:56;;;;;;;24.02;6.50;;;;;;;-144.47;90.03;53090.47;5029033;28;20494;-67
2023/03/06 06:01:21;;;;;;;22.70;7.35;;;;;;;-144.47;89.82;53084.50;5029102;28;20102;-67
2023/03/06 06:03:47;;;;;;;15.25;6.22;;;;;;;-144.47;88.97;53038.81;5030592;28;20029;-68
2023/03/06 06:06:13;;;;;;;21.08;6.50;;;;;;;-144.47;88.99;53048.75;5031885;28;20025;-66
2023/03/06 06:08:40;;;;;;;13.25;6.15;;;;;;;-144.47;88.23;53050.75;5035483;28;20025;-69
2023/03/06 06:11:07;;;;;;;16.15;6.72;;;;;;;-144.47;88.12;53066.63;5028314;28;20393;-67
2023/03/06 06:13:33;;;;;;;16.52;6.60;;;;;;;-144.47;87.97;53072.59;5036847;28;20074;-67
2023/03/06 06:15:58;;;;;;;14.02;6.53;;;;;;;-144.47;88.00;53048.75;5029336;28;20033;-68
2023/03/06 06:18:24;;;;;;;19.33;7.13;;;;;;;-144.47;87.84;53044.78;5029140;28;20040;-67
2023/03/06 06:20:49;;;;;;;22.92;6.82;;;;;;;-144.47;87.53;53030.88;5030014;28;20082;-69
2023/03/06 06:23:14;;;;;;;14.63;6.00;;;;;;;-144.47;87.92;53090.47;5029414;28;20490;-69
2023/03/06 06:25:40;;;;;;;16.10;6.43;;;;;;;-144.47;92.66;53046.75;5027397;28;20432;-68
2023/03/06 06:28:05;;;;;;;13.65;6.55;;;;;;;-144.47;88.54;53054.72;5029839;28;20061;-68
2023/03/06 06:30:35;;;;;;;14.32;7.55;;;;;;;-144.47;87.21;52995.13;5010245;28;20032;-65
2023/03/06 06:33:00;;;;;;;16.90;6.60;;;;;;;-144.47;86.38;53056.69;5028450;28;20031;-70
2023/03/06 06:35:25;;;;;;;14.50;6.45;;;;;;;-144.47;85.88;53050.75;5028564;28;20108;-66
2023/03/06 06:37:51;;;;;;;15.65;6.47;;;;;;;-144.47;86.21;53048.75;5028374;28;20049;-68
2023/03/06 06:40:17;;;;;;;15.40;6.93;;;;;;;-144.47;85.88;53050.75;5028227;28;20164;-67
2023/03/06 06:42:42;;;;;;;14.57;6.90;;;;;;;-144.47;85.93;53030.88;5029008;28;20025;-68
2023/03/06 06:45:10;;;;;;;14.55;7.85;;;;;;;-144.47;86.24;53030.88;5030065;28;20048;-68
2023/03/06 06:47:39;;;;;;;19.20;7.72;;;;;;;-144.47;85.57;53056.69;5027811;28;20018;-68
2023/03/06 06:50:07;;;;;;;19.13;7.40;;;;;;;-144.47;85.08;53034.84;5028277;28;20021;-69
2023/03/06 06:52:32;;;;;;;19.30;7.88;;;;;;;-144.47;84.55;53048.75;5026987;28;20108;-67
2023/03/06 06:54:57;;;;;;;14.23;5.88;;;;;;;-144.47;84.21;53046.75;5038259;28;20120;-67
2023/03/06 06:57:23;;;;;;;11.23;6.00;;;;;;;-144.47;84.11;53044.78;5028491;28;20057;-71
2023/03/06 06:59:48;;;;;;;14.73;6.68;;;;;;;-144.47;83.83;53030.88;5010486;28;20030;-69
2023/03/06 07:02:15;;;;;;;14.38;6.38;;;;;;;-144.47;83.39;53054.72;5028232;28;20025;-68
2023/03/06 07:04:40;;;;;;;12.00;6.22;;;;;;;-144.47;83.17;53038.81;5029247;28;20026;-70
2023/03/06 07:07:06;;;;;;;19.15;6.07;;;;;;;-144.47;83.14;53066.63;5030854;28;20040;-69
2023/03/06 07:09:31;;;;;;;16.08;6.63;;;;;;;-144.47;83.76;53011.00;5035545;28;20037;-66
2023/03/06 07:11:57;;;;;;;15.25;7.82;;;;;;;-144.47;83.14;53022.94;5027793;28;20100;-69
2023/03/06 07:14:22;;;;;;;14.95;6.55;;;;;;;-144.47;82.97;53040.81;5036616;28;20155;-67
2023/03/06 07:16:47;;;;;;;15.82;6.50;;;;;;;-144.47;83.17;53048.75;5027899;28;20519;-67
2023/03/06 07:19:13;;;;;;;13.23;6.68;;;;;;;-144.47;83.54;53050.75;5028148;28;20033;-66
2023/03/06 07:21:38;;;;;;;17.27;6.53;;;;;;;-144.47;83.61;53030.88;5026762;28;20091;-68
2023/03/06 07:24:04;;;;;;;14.40;6.25;;;;;;;-144.47;84.43;53026.91;5027433;28;20032;-67
2023/03/06 07:26:29;;;;;;;15.13;7.30;;;;;;;-144.47;84.98;53016.97;5027384;28;20540;-68
2023/03/06 07:28:55;;;;;;;12.75;5.75;;;;;;;-144.47;85.47;53034.84;5027338;28;20029;-69
2023/03/06 07:31:23;;;;;;;20.95;6.35;;;;;;;-144.47;86.14;53015.00;5027254;28;20022;-66
2023/03/06 07:33:50;;;;;;;19.05;7.28;;;;;;;-144.47;86.87;53030.88;5027834;28;20025;-66
2023/03/06 07:36:15;;;;;;;15.52;6.95;;;;;;;-144.47;87.52;53034.84;5021215;28;20025;-70
2023/03/06 07:38:40;;;;;;;23.02;7.53;;;;;;;-144.47;87.76;53046.75;5027761;28;20142;-66
2023/03/06 07:41:12;;;;;;;16.98;7.90;;;;;;;-144.47;88.97;53088.47;5026658;28;20040;-67
2023/03/06 07:43:37;;;;;;;16.08;7.43;;;;;;;-144.47;88.86;53046.75;5027783;28;20532;-69
2023/03/06 07:46:03;;;;;;;20.55;8.50;;;;;;;-144.47;89.53;53040.81;5027802;28;20022;-68
2023/03/06 07:48:29;;;;;;;13.82;6.97;;;;;;;-144.47;90.08;53054.72;5027239;28;20029;-69
2023/03/06 07:50:57;;;;;;;16.30;7.53;;;;;;;-144.47;89.29;53044.78;5035433;28;20048;-69
2023/03/06 07:53:23;;;;;;;19.13;8.05;;;;;;;-144.47;89.68;53034.84;5000284;28;20021;-67
2023/03/06 07:55:49;;;;;;;18.02;7.40;;;;;;;-144.47;90.11;53030.88;5037977;28;20411;-69
2023/03/06 07:58:14;;;;;;;14.38;6.85;;;;;;;-144.47;90.22;53042.78;5026966;28;20022;-69
2023/03/06 08:00:39;;;;;;;16.33;7.57;;;;;;;-144.47;90.57;53050.75;5027226;28;20052;-69
2023/03/06 08:03:05;;;;;;;15.55;7.43;;;;;;;-144.47;91.13;53044.78;5026778;28;20642;-68
2023/03/06 08:05:30;;;;;;;14.68;7.38;;;;;;;-144.47;92.37;53018.97;5026996;28;20037;-69
2023/03/06 08:07:56;;;;;;;20.48;7.93;;;;;;;-144.47;91.84;53034.84;5029755;28;20083;-68
2023/03/06 08:10:21;;;;;;;16.83;7.03;;;;;;;-144.47;93.11;53058.69;5011112;28;20022;-69
2023/03/06 08:12:47;;;;;;;21.23;8.68;;;;;;;-144.47;93.45;53052.72;5028534;28;20043;-66
2023/03/06 08:15:12;;;;;;;17.60;6.78;;;;;;;-144.47;92.98;53054.72;5031702;28;20036;-67
2023/03/06 08:17:38;;;;;;;19.15;8.00;;;;;;;-144.47;93.78;53020.94;5027060;28;20036;-68
2023/03/06 08:20:04;;;;;;;19.15;8.57;;;;;;;-144.47;93.91;53038.81;5035561;28;20048;-68
2023/03/06 08:22:32;;;;;;;18.48;8.00;;;;;;;-144.47;93.93;53046.75;5031715;28;20076;-66
2023/03/06 08:24:58;;;;;;;15.65;7.65;;;;;;;-144.47;94.03;53024.91;5029466;28;20048;-68
2023/03/06 08:27:23;;;;;;;17.70;7.25;;;;;;;-144.47;94.37;53018.97;5026260;28;20132;-68
2023/03/06 08:29:49;;;;;;;18.52;8.27;;;;;;;-144.47;94.84;53020.94;5026625;28;20361;-69
2023/03/06 08:32:14;;;;;;;18.50;7.72;;;;;;;-144.47;94.75;53022.94;5026812;28;20021;-67
2023/03/06 08:34:41;;;;;;;21.63;8.00;;;;;;;-144.47;94.43;53036.84;5026687;28;20017;-68
2023/03/06 08:37:06;;;;;;;18.10;7.60;;;;;;;-144.47;94.88;53056.69;5016784;28;20045;-69
2023/03/06 08:39:31;;;;;;;17.70;7.80;;;;;;;-144.47;94.87;53040.81;5026907;28;20025;-67
2023/03/06 08:41:57;;;;;;;22.25;7.88;;;;;;;-144.47;95.06;53022.94;5026895;28;20033;-69
2023/03/06 08:44:22;;;;;;;17.55;7.40;;;;;;;-144.47;95.63;53046.75;5027865;28;20060;-67
2023/03/06 08:46:47;;;;;;;19.45;8.70;;;;;;;-144.47;95.12;53064.66;5010070;28;20029;-68
2023/03/06 08:49:13;;;;;;;19.10;8.10;;;;;;;-144.47;95.55;53040.81;5026887;28;20025;-68
2023/03/06 08:51:38;;;;;;;16.92;7.55;;;;;;;-144.47;95.59;53018.97;5026940;28;20131;-69
2023/03/06 08:54:04;;;;;;;21.33;8.90;;;;;;;-144.47;94.93;53048.75;5034877;28;21301;-68
2023/03/06 08:56:32;;;;;;;18.10;8.45;;;;;;;-144.47;96.09;53022.94;5035913;28;20049;-66
2023/03/06 08:58:59;;;;;;;15.70;7.80;;;;;;;-144.47;96.33;53024.91;5029907;28;20052;-68
2023/03/06 09:01:27;;;;;;;16.27;8.38;;;;;;;-144.47;95.83;53046.75;5022440;28;20031;-68
2023/03/06 09:03:55;;;;;;;20.75;9.10;;;;;;;-144.47;95.78;53040.81;5012496;28;20029;-66
2023/03/06 09:06:21;;;;;;;18.33;7.57;;;;;;;-144.47;95.49;53026.91;5030600;28;20037;-66
2023/03/06 09:08:46;;;;;;;27.83;11.52;;;;;;;-144.47;95.29;53030.88;5019102;28;20140;-68
2023/03/06 09:11:14;;;;;;;27.98;11.60;;;;;;;-144.47;95.25;53011.00;5029869;28;20025;-66
2023/03/06 09:13:42;;;;;;;24.42;9.25;;;;;;;-144.47;95.39;53030.88;5037911;28;20113;-70
2023/03/06 09:16:10;;;;;;;18.38;8.43;;;;;;;-144.47;94.45;52999.09;5030258;28;20044;-67
2023/03/06 09:18:35;;;;;;;22.40;9.27;;;;;;;-144.47;94.98;53024.91;5029672;28;20045;-69
2023/03/06 09:21:02;;;;;;;20.65;7.85;;;;;;;-144.47;94.49;53028.88;5029766;28;20036;-67
2023/03/06 09:23:28;;;;;;;19.38;9.30;;;;;;;-144.47;93.97;53030.88;5030337;28;20403;-66
2023/03/06 09:25:55;;;;;;;21.17;8.55;;;;;;;-144.47;92.99;53011.00;5030797;28;20045;-66
2023/03/06 09:28:21;;;;;;;18.10;8.38;;;;;;;-144.47;92.90;53028.88;5028972;28;20032;-67
2023/03/06 09:30:47;;;;;;;19.88;8.32;;;;;;;-144.47;92.69;53036.84;5030213;28;20363;-70
2023/03/06 09:33:13;;;;;;;17.27;7.93;;;;;;;-144.47;92.44;53005.06;5029974;28;20055;-68
2023/03/06 09:35:46;;;;;;;22.90;8.95;;;;;;;-144.47;92.12;53018.97;5030200;28;20479;-69
2023/03/06 09:38:11;;;;;;;18.80;7.63;;;;;;;-144.47;91.74;53013.00;5029493;28;20028;-67
2023/03/06 09:40:56;;;;;;;43.55;12.63;;;;;;;-144.47;91.48;52993.13;5029399;28;20021;-69
2023/03/06 09:43:27;;;;;;;17.38;7.68;;;;;;;-144.47;90.53;52991.16;5029237;28;20558;-68
2023/03/06 09:45:52;;;;;;;20.85;8.52;;;;;;;-144.47;89.01;53030.88;5029580;28;20091;-68
2023/03/06 09:48:26;;;;;;;20.55;9.13;;;;;;;-144.47;88.52;53005.06;5011904;28;20474;-67
2023/03/06 09:51:03;;;;;;;18.38;9.52;;;;;;;-144.47;86.20;53003.06;5029209;28;20072;-66
2023/03/06 09:53:44;;;;;;;20.25;9.73;;;;;;;-144.47;83.46;52975.25;5021304;28;20718;-67
2023/03/06 09:56:19;;;;;;;22.98;10.02;;;;;;;-144.47;85.52;52987.19;5037767;28;20033;-66
2023/03/06 09:58:49;;;;;;;22.95;10.93;;;;;;;-144.47;84.10;52981.22;5005252;28;20021;-66
2023/03/06 10:01:26;;;;;;;22.45;10.00;;;;;;;-144.47;84.31;52991.16;5029744;28;20017;-68
2023/03/06 10:04:36;;;;;;;21.15;10.05;;;;;;;-144.47;85.05;52979.22;5028885;28;20458;-66
2023/03/06 10:07:11;;;;;;;20.58;9.80;;;;;;;-144.47;85.21;52971.28;5028828;28;20041;-67
2023/03/06 10:09:55;;;;;;;22.42;10.88;;;;;;;-144.47;84.82;52969.31;5016977;28;20128;-69
2023/03/06 10:12:27;;;;;;;21.98;10.93;;;;;;;-144.47;85.48;52959.38;5033335;28;20020;-68
2023/03/06 10:15:01;;;;;;;25.30;12.10;;;;;;;-144.47;85.60;52989.16;5031530;28;20128;-68
2023/03/06 10:17:34;;;;;;;27.13;11.23;;;;;;;-144.47;86.99;52965.34;5029069;28;20021;-66
2023/03/06 10:20:00;;;;;;;24.95;12.05;;;;;;;-144.47;85.76;52977.25;5029065;28;20056;-69
2023/03/06 10:22:35;;;;;;;26.55;12.68;;;;;;;-144.47;86.55;53005.06;5044125;22;20049;-67
2023/03/06 10:25:26;;;;;;;29.52;13.98;;;;;;;-144.47;85.74;53020.94;5043432;28;20029;-69
2023/03/06 10:28:13;;;;;;;29.80;15.05;;;;;;;-144.47;86.28;52959.38;5044193;28;20057;-70
2023/03/06 10:30:44;;;;;;;24.58;12.57;;;;;;;-144.47;86.09;52987.19;5041910;28;20029;-70
2023/03/06 10:33:31;;;;;;;28.13;11.95;;;;;;;-144.47;85.44;52981.22;5032945;28;20052;-70
2023/03/06 10:35:57;;;;;;;25.92;12.60;;;;;;;-144.47;85.18;52987.19;5026180;28;20047;-68
2023/03/06 10:38:24;;;;;;;32.90;13.20;;;;;;;-144.47;84.45;52991.16;5039712;28;20467;-71
2023/03/06 10:41:06;;;;;;;26.08;12.70;;;;;;;-144.47;83.83;52987.19;5044189;28;20069;-71
2023/03/06 10:43:34;;;;;;;26.20;12.27;;;;;;;-144.47;84.06;53003.06;5030571;28;20036;-71
2023/03/06 10:46:00;;;;;;;25.00;11.77;;;;;;;-144.47;85.13;52965.34;5043915;28;20049;-69
2023/03/06 10:48:29;;;;;;;25.58;12.43;;;;;;;-144.47;85.23;52987.19;5030620;28;20056;-70
2023/03/06 10:51:18;;;;;;;24.10;11.27;;;;;;;-144.47;85.34;52991.16;5032376;28;20031;-70
2023/03/06 10:53:56;;;;;;;21.35;10.73;;;;;;;-144.47;84.69;52985.19;5038584;28;20032;-70
2023/03/06 10:56:28;;;;;;;18.77;10.07;;;;;;;-144.47;84.91;52973.28;5045761;28;20027;-70
2023/03/06 10:59:28;;;;;;;26.73;10.80;;;;;;;-144.47;84.83;52965.34;5019316;28;20078;-71
2023/03/06 11:02:15;;;;;;;21.10;10.20;;;;;;;-144.47;84.42;52983.22;5035758;28;20102;-68
2023/03/06 11:04:45;;;;;;;22.20;10.23;;;;;;;-144.47;85.03;52967.31;5050001;28;20503;-69
2023/03/06 11:07:15;;;;;;;22.27;11.18;;;;;;;-144.47;84.43;52975.25;5045343;28;20033;-70
2023/03/06 11:09:42;;;;;;;21.45;10.32;;;;;;;-144.47;83.11;52975.25;5039409;28;20083;-69